Marcel — ONDP — position and weather

sailwx.info

Track history (hours):
 
Tides and Currents Weather Stations Pressure Air Temp Water Temp Dewpoint Dewpoint Depression Visibility Wind Speed Wind Dir Waves Ship Positions

Marcel

Last reported at 2015-Jul-29 16:29 UTC. Time now 2015-Aug-01 01:26 UTC.
Position N 54°56' E 019°26'.

Length 88 m; draft 3.8 m.

Type: Cargo ship. MMSI: 205439000.

Date/timePositionNaut miles runAvg speedWind from/ knotsBaromVisibWave heightAir tempDewpointWater temp
2015-Jul-29 16:29N 54°56' E 019°26'9 9.6
2015-Jul-29 15:33N 54°50' E 019°15'1010.1
2015-Jul-29 14:33N 54°42' E 019°02'1010.3
2015-Jul-29 13:33N 54°34' E 018°52'9 9.4
2015-Jul-29 12:34N 54°32' E 018°36'3 3.1
2015-Jul-29 11:27N 54°33' E 018°30'0 0.0
2015-Jul-29 10:28N 54°33' E 018°30'0 0.0
2015-Jul-29 09:33N 54°33' E 018°30'0 0.0
2015-Jul-29 08:33N 54°33' E 018°30'0 0.0
2015-Jul-29 07:33N 54°33' E 018°30'0 0.0
2015-Jul-29 06:28N 54°33' E 018°30'0 0.0
2015-Jul-29 05:31N 54°33' E 018°30'0 0.0
2015-Jul-29 04:33N 54°33' E 018°30'0 0.0
2015-Jul-29 03:33N 54°33' E 018°30'0 0.0
2015-Jul-29 02:33N 54°33' E 018°30'0 0.0
2015-Jul-29 01:33N 54°33' E 018°30'0 0.0
2015-Jul-29 00:32N 54°33' E 018°30'0 0.0
2015-Jul-28 23:32N 54°33' E 018°30'0 0.0
2015-Jul-28 22:32N 54°33' E 018°30'0 0.0
2015-Jul-28 21:31N 54°33' E 018°30'0 0.0
2015-Jul-28 20:25N 54°33' E 018°30'0 0.0
2015-Jul-28 19:33N 54°33' E 018°30'0 0.0
2015-Jul-28 18:33N 54°33' E 018°30'0 0.0
2015-Jul-28 17:33N 54°33' E 018°30'6 5.5
2015-Jul-28 16:33N 54°32' E 018°40'8 8.2
2015-Jul-28 15:33N 54°36' E 018°53'9 9.2
2015-Jul-28 14:33N 54°45' E 018°58'9 8.9
2015-Jul-28 13:33N 54°51' E 018°47'8 8.4
2015-Jul-28 12:33N 54°56' E 018°36'8 8.2
2015-Jul-28 11:33N 54°58' E 018°22'9 9.1
2015-Jul-28 10:33N 54°57' E 018°06'94 9.2
2015-Jul-28 00:23N 54°52' E 015°24'8 9.6
2015-Jul-27 23:33N 54°52' E 015°10'9 9.1
2015-Jul-27 22:33N 54°54' E 014°54'9 9.2
2015-Jul-27 21:33N 54°55' E 014°39'9 9.4
2015-Jul-27 20:33N 54°57' E 014°22'9 9.2
2015-Jul-27 19:34N 54°58' E 014°06'9 9.2
2015-Jul-27 18:33N 55°01' E 013°52'28 9.1
2015-Jul-27 15:31N 55°11' E 013°07'9 9.2
2015-Jul-27 14:33N 55°14' E 012°52'9 8.6
2015-Jul-27 13:33N 55°18' E 012°39'9 8.6
2015-Jul-27 12:33N 55°26' E 012°40'9 8.5
2015-Jul-27 11:33N 55°34' E 012°48'7 7.2
2015-Jul-27 10:34N 55°37' E 012°59'0 0.4
2015-Jul-27 09:32N 55°37' E 013°00'0 0.0
2015-Jul-27 08:33N 55°37' E 013°00'0 0.0
2015-Jul-27 07:32N 55°37' E 013°00'0 0.0
2015-Jul-27 06:32N 55°37' E 013°00'0 0.0
2015-Jul-27 05:33N 55°37' E 013°00'0 0.0
2015-Jul-27 04:32N 55°37' E 013°00'0 0.0
2015-Jul-27 03:32N 55°37' E 013°00'0 0.0
2015-Jul-27 02:31N 55°37' E 013°00'0 0.0
2015-Jul-27 01:31N 55°37' E 013°00'0 0.0
2015-Jul-27 00:31N 55°37' E 013°00'0 0.0
2015-Jul-26 23:31N 55°37' E 013°00'0 0.0
2015-Jul-26 22:32N 55°37' E 013°00'0 0.0
2015-Jul-26 21:32N 55°37' E 013°00'0 0.0
2015-Jul-26 20:32N 55°37' E 013°00'0 0.0
2015-Jul-26 19:33N 55°37' E 013°00'0 0.0
2015-Jul-26 18:33N 55°37' E 013°00'0 0.0
2015-Jul-26 17:33N 55°37' E 013°00'0 0.0
2015-Jul-26 16:32N 55°37' E 013°00'0 0.0
2015-Jul-26 15:31N 55°37' E 013°00'0 0.0
2015-Jul-26 14:31N 55°37' E 013°00'0 0.0
2015-Jul-26 13:29N 55°37' E 013°00'0 0.0
2015-Jul-26 12:32N 55°37' E 013°00'0 0.0
2015-Jul-26 11:32N 55°37' E 013°00'0 0.0
2015-Jul-26 10:33N 55°37' E 013°00'0 0.0
2015-Jul-26 09:33N 55°37' E 013°00'0 0.0
2015-Jul-26 08:29N 55°37' E 013°00'0 0.0
2015-Jul-26 07:32N 55°37' E 013°00'0 0.0
2015-Jul-26 06:30N 55°37' E 013°00'0 0.0
2015-Jul-26 05:31N 55°37' E 013°00'0 0.0
2015-Jul-26 04:31N 55°37' E 013°00'0 0.0
2015-Jul-26 03:31N 55°37' E 013°00'0 0.0
2015-Jul-26 02:31N 55°37' E 013°00'0 0.0
2015-Jul-26 01:31N 55°37' E 013°00'0 0.0
2015-Jul-26 00:32N 55°37' E 013°00'0 0.0
2015-Jul-25 23:32N 55°37' E 013°00'0 0.0
2015-Jul-25 22:32N 55°37' E 013°00'0 0.0
2015-Jul-25 21:31N 55°37' E 013°00'0 0.0
2015-Jul-25 20:33N 55°37' E 013°00'0 0.0
2015-Jul-25 19:32N 55°37' E 013°00'0 0.0
2015-Jul-25 18:31N 55°37' E 013°00'0 0.0
2015-Jul-25 17:28N 55°37' E 013°00'0 0.0
2015-Jul-25 16:29N 55°37' E 013°00'0 0.0
2015-Jul-25 15:32N 55°37' E 013°00'0 0.0
2015-Jul-25 14:29N 55°37' E 013°00'0 0.0
2015-Jul-25 13:33N 55°37' E 013°00'0 0.0
2015-Jul-25 12:33N 55°37' E 013°00'0 0.0
2015-Jul-25 11:32N 55°37' E 013°00'0 0.0
2015-Jul-25 10:28N 55°37' E 013°00'0 0.0
2015-Jul-25 09:33N 55°37' E 013°00'0 0.0
2015-Jul-25 08:26N 55°37' E 013°00'0 0.0
2015-Jul-25 07:33N 55°37' E 013°00'0 0.0
2015-Jul-25 06:31N 55°37' E 013°00'0 0.0
2015-Jul-25 05:33N 55°37' E 013°00'0 0.0
2015-Jul-25 04:33N 55°37' E 013°00'0 0.0
2015-Jul-25 03:30N 55°37' E 013°00'0 0.0
2015-Jul-25 02:32N 55°37' E 013°00'0 0.0
2015-Jul-25 01:33N 55°37' E 013°00'0 0.0
2015-Jul-25 00:28N 55°37' E 013°00'0 0.0
2015-Jul-24 23:30N 55°37' E 013°00'0 0.0
2015-Jul-24 22:33N 55°37' E 013°00'0 0.0
2015-Jul-24 21:29N 55°37' E 013°00'0 0.0
2015-Jul-24 20:26N 55°37' E 013°00'0 0.0
2015-Jul-24 19:32N 55°37' E 013°00'0 0.0
2015-Jul-24 18:32N 55°37' E 013°00'0 0.0
2015-Jul-24 17:32N 55°37' E 013°00'0 0.0
2015-Jul-24 16:33N 55°37' E 013°00'3 2.8
2015-Jul-24 15:33N 55°38' E 012°55'9 9.1
2015-Jul-24 14:34N 55°31' E 012°45'10 9.6
2015-Jul-24 13:33N 55°22' E 012°42'9 9.4
2015-Jul-24 12:33N 55°12' E 012°40'9 9.3
2015-Jul-24 11:32N 55°03' E 012°40'33 8.4
2015-Jul-24 07:32N 54°32' E 012°17'9 8.8
2015-Jul-24 06:28N 54°24' E 012°07'9 9.6
2015-Jul-24 05:33N 54°24' E 011°52'9 9.4
2015-Jul-24 04:33N 54°27' E 011°37'9 9.3
2015-Jul-24 03:33N 54°31' E 011°22'9 9.2
2015-Jul-24 02:34N 54°35' E 011°08'11 9.5
2015-Jul-24 01:25N 54°34' E 010°49'8 9.4
2015-Jul-24 00:33N 54°33' E 010°35'9 9.3
2015-Jul-23 23:33N 54°30' E 010°20'9 8.8
2015-Jul-23 22:33N 54°23' E 010°11'4 3.9
2015-Jul-23 21:33N 54°22' E 010°05'8 7.9
2015-Jul-23 20:33N 54°22' E 009°51'8 8.1
2015-Jul-23 19:33N 54°17' E 009°40'8 6.9
2015-Jul-23 18:20N 54°11' E 009°30'7 8.5
2015-Jul-23 17:31N 54°08' E 009°20'8 8.7
2015-Jul-23 16:34N 53°59' E 009°17'8 7.5
2015-Jul-23 15:33N 53°54' E 009°09'1 1.3
2015-Jul-23 14:33N 53°53' E 009°07'4 4.0
2015-Jul-23 13:33N 53°51' E 009°01'9 9.4
2015-Jul-23 12:33N 53°51' E 008°45'9 9.0
2015-Jul-23 11:33N 53°58' E 008°34'9 8.7
2015-Jul-23 10:33N 53°59' E 008°19'12 9.5
2015-Jul-23 09:19N 53°58' E 007°60'7 8.8
2015-Jul-23 08:32N 53°56' E 007°48'8 8.5
2015-Jul-23 07:33N 53°55' E 007°35'8 8.2
2015-Jul-23 06:33N 53°53' E 007°21'9 8.3
2015-Jul-23 05:31N 53°50' E 007°07'36 9.0
2015-Jul-23 01:32N 53°41' E 006°08'1010.0
2015-Jul-23 00:33N 53°38' E 005°52'1010.1
2015-Jul-22 23:33N 53°35' E 005°36'1010.3
2015-Jul-22 22:33N 53°32' E 005°20'1010.5
2015-Jul-22 21:33N 53°29' E 005°03'1111.0
2015-Jul-22 20:33N 53°25' E 004°46'2411.0
2015-Jul-22 18:24N 53°04' E 004°26'910.2
2015-Jul-22 17:33N 52°57' E 004°19'9 9.4
2015-Jul-22 16:33N 52°48' E 004°12'9 8.8
2015-Jul-22 15:33N 52°41' E 004°03'9 8.7
2015-Jul-22 14:32N 52°35' E 003°52'72 8.9
2015-Jul-22 06:30N 51°42' E 002°33'1010.4
2015-Jul-22 05:33N 51°35' E 002°24'1111.0
2015-Jul-22 04:33N 51°25' E 002°14'1111.2
2015-Jul-22 03:33N 51°15' E 002°05'1111.5
2015-Jul-22 02:33N 51°08' E 001°52'1211.5
2015-Jul-22 01:33N 50°60' E 001°38'20 9.7
2015-Jul-21 23:30N 50°43' E 001°23'8 8.9
2015-Jul-21 22:33N 50°36' E 001°15'161 9.8
2015-Jul-21 06:07N 49°48' W 002°46'  
Track history (hours):
 
Tides and Currents Weather Stations Pressure Air Temp Water Temp Dewpoint Dewpoint Depression Visibility Wind Speed Wind Dir Waves Ship Positions

Marcel

Last reported at 2015-Jul-29 16:29 UTC. Time now 2015-Aug-01 01:26 UTC.
Position N 54°56' E 019°26'.

Length 88 m; draft 3.8 m.

Type: Cargo ship. MMSI: 205439000.

Date/timePositionNaut miles runAvg speedWind from/ knotsBaromVisibWave heightAir tempDewpointWater temp
2015-Jul-29 16:29N 54°56' E 019°26'9 9.6
2015-Jul-29 15:33N 54°50' E 019°15'1010.1
2015-Jul-29 14:33N 54°42' E 019°02'1010.3
2015-Jul-29 13:33N 54°34' E 018°52'9 9.4
2015-Jul-29 12:34N 54°32' E 018°36'3 3.1
2015-Jul-29 11:27N 54°33' E 018°30'0 0.0
2015-Jul-29 10:28N 54°33' E 018°30'0 0.0
2015-Jul-29 09:33N 54°33' E 018°30'0 0.0
2015-Jul-29 08:33N 54°33' E 018°30'0 0.0
2015-Jul-29 07:33N 54°33' E 018°30'0 0.0
2015-Jul-29 06:28N 54°33' E 018°30'0 0.0
2015-Jul-29 05:31N 54°33' E 018°30'0 0.0
2015-Jul-29 04:33N 54°33' E 018°30'0 0.0
2015-Jul-29 03:33N 54°33' E 018°30'0 0.0
2015-Jul-29 02:33N 54°33' E 018°30'0 0.0
2015-Jul-29 01:33N 54°33' E 018°30'0 0.0
2015-Jul-29 00:32N 54°33' E 018°30'0 0.0
2015-Jul-28 23:32N 54°33' E 018°30'0 0.0
2015-Jul-28 22:32N 54°33' E 018°30'0 0.0
2015-Jul-28 21:31N 54°33' E 018°30'0 0.0
2015-Jul-28 20:25N 54°33' E 018°30'0 0.0
2015-Jul-28 19:33N 54°33' E 018°30'0 0.0
2015-Jul-28 18:33N 54°33' E 018°30'0 0.0
2015-Jul-28 17:33N 54°33' E 018°30'6 5.5
2015-Jul-28 16:33N 54°32' E 018°40'8 8.2
2015-Jul-28 15:33N 54°36' E 018°53'9 9.2
2015-Jul-28 14:33N 54°45' E 018°58'9 8.9
2015-Jul-28 13:33N 54°51' E 018°47'8 8.4
2015-Jul-28 12:33N 54°56' E 018°36'8 8.2
2015-Jul-28 11:33N 54°58' E 018°22'9 9.1
2015-Jul-28 10:33N 54°57' E 018°06'94 9.2
2015-Jul-28 00:23N 54°52' E 015°24'8 9.6
2015-Jul-27 23:33N 54°52' E 015°10'9 9.1
2015-Jul-27 22:33N 54°54' E 014°54'9 9.2
2015-Jul-27 21:33N 54°55' E 014°39'9 9.4
2015-Jul-27 20:33N 54°57' E 014°22'9 9.2
2015-Jul-27 19:34N 54°58' E 014°06'9 9.2
2015-Jul-27 18:33N 55°01' E 013°52'28 9.1
2015-Jul-27 15:31N 55°11' E 013°07'9 9.2
2015-Jul-27 14:33N 55°14' E 012°52'9 8.6
2015-Jul-27 13:33N 55°18' E 012°39'9 8.6
2015-Jul-27 12:33N 55°26' E 012°40'9 8.5
2015-Jul-27 11:33N 55°34' E 012°48'7 7.2
2015-Jul-27 10:34N 55°37' E 012°59'0 0.4
2015-Jul-27 09:32N 55°37' E 013°00'0 0.0
2015-Jul-27 08:33N 55°37' E 013°00'0 0.0
2015-Jul-27 07:32N 55°37' E 013°00'0 0.0
2015-Jul-27 06:32N 55°37' E 013°00'0 0.0
2015-Jul-27 05:33N 55°37' E 013°00'0 0.0
2015-Jul-27 04:32N 55°37' E 013°00'0 0.0
2015-Jul-27 03:32N 55°37' E 013°00'0 0.0
2015-Jul-27 02:31N 55°37' E 013°00'0 0.0
2015-Jul-27 01:31N 55°37' E 013°00'0 0.0
2015-Jul-27 00:31N 55°37' E 013°00'0 0.0
2015-Jul-26 23:31N 55°37' E 013°00'0 0.0
2015-Jul-26 22:32N 55°37' E 013°00'0 0.0
2015-Jul-26 21:32N 55°37' E 013°00'0 0.0
2015-Jul-26 20:32N 55°37' E 013°00'0 0.0
2015-Jul-26 19:33N 55°37' E 013°00'0 0.0
2015-Jul-26 18:33N 55°37' E 013°00'0 0.0
2015-Jul-26 17:33N 55°37' E 013°00'0 0.0
2015-Jul-26 16:32N 55°37' E 013°00'0 0.0
2015-Jul-26 15:31N 55°37' E 013°00'0 0.0
2015-Jul-26 14:31N 55°37' E 013°00'0 0.0
2015-Jul-26 13:29N 55°37' E 013°00'0 0.0
2015-Jul-26 12:32N 55°37' E 013°00'0 0.0
2015-Jul-26 11:32N 55°37' E 013°00'0 0.0
2015-Jul-26 10:33N 55°37' E 013°00'0 0.0
2015-Jul-26 09:33N 55°37' E 013°00'0 0.0
2015-Jul-26 08:29N 55°37' E 013°00'0 0.0
2015-Jul-26 07:32N 55°37' E 013°00'0 0.0
2015-Jul-26 06:30N 55°37' E 013°00'0 0.0
2015-Jul-26 05:31N 55°37' E 013°00'0 0.0
2015-Jul-26 04:31N 55°37' E 013°00'0 0.0
2015-Jul-26 03:31N 55°37' E 013°00'0 0.0
2015-Jul-26 02:31N 55°37' E 013°00'0 0.0
2015-Jul-26 01:31N 55°37' E 013°00'0 0.0
2015-Jul-26 00:32N 55°37' E 013°00'0 0.0
2015-Jul-25 23:32N 55°37' E 013°00'0 0.0
2015-Jul-25 22:32N 55°37' E 013°00'0 0.0
2015-Jul-25 21:31N 55°37' E 013°00'0 0.0
2015-Jul-25 20:33N 55°37' E 013°00'0 0.0
2015-Jul-25 19:32N 55°37' E 013°00'0 0.0
2015-Jul-25 18:31N 55°37' E 013°00'0 0.0
2015-Jul-25 17:28N 55°37' E 013°00'0 0.0
2015-Jul-25 16:29N 55°37' E 013°00'0 0.0
2015-Jul-25 15:32N 55°37' E 013°00'0 0.0
2015-Jul-25 14:29N 55°37' E 013°00'0 0.0
2015-Jul-25 13:33N 55°37' E 013°00'0 0.0
2015-Jul-25 12:33N 55°37' E 013°00'0 0.0
2015-Jul-25 11:32N 55°37' E 013°00'0 0.0
2015-Jul-25 10:28N 55°37' E 013°00'0 0.0
2015-Jul-25 09:33N 55°37' E 013°00'0 0.0
2015-Jul-25 08:26N 55°37' E 013°00'0 0.0
2015-Jul-25 07:33N 55°37' E 013°00'0 0.0
2015-Jul-25 06:31N 55°37' E 013°00'0 0.0
2015-Jul-25 05:33N 55°37' E 013°00'0 0.0
2015-Jul-25 04:33N 55°37' E 013°00'0 0.0
2015-Jul-25 03:30N 55°37' E 013°00'0 0.0
2015-Jul-25 02:32N 55°37' E 013°00'0 0.0
2015-Jul-25 01:33N 55°37' E 013°00'0 0.0
2015-Jul-25 00:28N 55°37' E 013°00'0 0.0
2015-Jul-24 23:30N 55°37' E 013°00'0 0.0
2015-Jul-24 22:33N 55°37' E 013°00'0 0.0
2015-Jul-24 21:29N 55°37' E 013°00'0 0.0
2015-Jul-24 20:26N 55°37' E 013°00'0 0.0
2015-Jul-24 19:32N 55°37' E 013°00'0 0.0
2015-Jul-24 18:32N 55°37' E 013°00'0 0.0
2015-Jul-24 17:32N 55°37' E 013°00'0 0.0
2015-Jul-24 16:33N 55°37' E 013°00'3 2.8
2015-Jul-24 15:33N 55°38' E 012°55'9 9.1
2015-Jul-24 14:34N 55°31' E 012°45'10 9.6
2015-Jul-24 13:33N 55°22' E 012°42'9 9.4
2015-Jul-24 12:33N 55°12' E 012°40'9 9.3
2015-Jul-24 11:32N 55°03' E 012°40'33 8.4
2015-Jul-24 07:32N 54°32' E 012°17'9 8.8
2015-Jul-24 06:28N 54°24' E 012°07'9 9.6
2015-Jul-24 05:33N 54°24' E 011°52'9 9.4
2015-Jul-24 04:33N 54°27' E 011°37'9 9.3
2015-Jul-24 03:33N 54°31' E 011°22'9 9.2
2015-Jul-24 02:34N 54°35' E 011°08'11 9.5
2015-Jul-24 01:25N 54°34' E 010°49'8 9.4
2015-Jul-24 00:33N 54°33' E 010°35'9 9.3
2015-Jul-23 23:33N 54°30' E 010°20'9 8.8
2015-Jul-23 22:33N 54°23' E 010°11'4 3.9
2015-Jul-23 21:33N 54°22' E 010°05'8 7.9
2015-Jul-23 20:33N 54°22' E 009°51'8 8.1
2015-Jul-23 19:33N 54°17' E 009°40'8 6.9
2015-Jul-23 18:20N 54°11' E 009°30'7 8.5
2015-Jul-23 17:31N 54°08' E 009°20'8 8.7
2015-Jul-23 16:34N 53°59' E 009°17'8 7.5
2015-Jul-23 15:33N 53°54' E 009°09'1 1.3
2015-Jul-23 14:33N 53°53' E 009°07'4 4.0
2015-Jul-23 13:33N 53°51' E 009°01'9 9.4
2015-Jul-23 12:33N 53°51' E 008°45'9 9.0
2015-Jul-23 11:33N 53°58' E 008°34'9 8.7
2015-Jul-23 10:33N 53°59' E 008°19'12 9.5
2015-Jul-23 09:19N 53°58' E 007°60'7 8.8
2015-Jul-23 08:32N 53°56' E 007°48'8 8.5
2015-Jul-23 07:33N 53°55' E 007°35'8 8.2
2015-Jul-23 06:33N 53°53' E 007°21'9 8.3
2015-Jul-23 05:31N 53°50' E 007°07'36 9.0
2015-Jul-23 01:32N 53°41' E 006°08'1010.0
2015-Jul-23 00:33N 53°38' E 005°52'1010.1
2015-Jul-22 23:33N 53°35' E 005°36'1010.3
2015-Jul-22 22:33N 53°32' E 005°20'1010.5
2015-Jul-22 21:33N 53°29' E 005°03'1111.0
2015-Jul-22 20:33N 53°25' E 004°46'2411.0
2015-Jul-22 18:24N 53°04' E 004°26'910.2
2015-Jul-22 17:33N 52°57' E 004°19'9 9.4
2015-Jul-22 16:33N 52°48' E 004°12'9 8.8
2015-Jul-22 15:33N 52°41' E 004°03'9 8.7
2015-Jul-22 14:32N 52°35' E 003°52'72 8.9
2015-Jul-22 06:30N 51°42' E 002°33'1010.4
2015-Jul-22 05:33N 51°35' E 002°24'1111.0
2015-Jul-22 04:33N 51°25' E 002°14'1111.2
2015-Jul-22 03:33N 51°15' E 002°05'1111.5
2015-Jul-22 02:33N 51°08' E 001°52'1211.5
2015-Jul-22 01:33N 50°60' E 001°38'20 9.7
2015-Jul-21 23:30N 50°43' E 001°23'8 8.9
2015-Jul-21 22:33N 50°36' E 001°15'161 9.8
2015-Jul-21 06:07N 49°48' W 002°46'  

Dump ship's entire track history